Airfield :
LOGIN :

Register | Disclaimer

   EN    FR    IT 

 










Legend :    VFR   Marginal VFR   IFR   Intensive IFR   Very Intensive IFR
Visi :
Ceiling :
>= 8 km
>= 3000ft
5 to 8 km
1000 to 3000 ft
1500m to 5 km
500 to 1000 ft
800 to 1500m
200 to 500 ft
< 800m
< 200 ft
Symbols :   Thunderstorms  Fog  Heavy snow  Heavy precipitations  Wind > 20 kt
SIGMETs :     Misc.  Thunderstorms  Icing  Turbulence  Mountain Waves  Volcanic Ashes






- Airport Elevation : 326 ft
- IATA code : LCG


LECO - A Coruna

CURRENT METAR :
  • 081000Z AUTO VRB02KT CAVOK 18/14 Q1021

EXPIRED METARs :
  • 080930Z AUTO VRB01KT CAVOK 16/13 Q1021
  • 080900Z AUTO VRB02KT CAVOK 15/12 Q1021
  • 080830Z AUTO 17003KT 140V200 9000 NCD 13/13 Q1021
  • 080800Z AUTO 18003KT 140V200 0300 0200SW FG FEW001 12/12 Q1021
  • 080730Z AUTO 19004KT 0200 FG VV001 11/11 Q1022
  • 080700Z AUTO 18004KT 0250 FG SCT001 SCT048 10/10 Q1022

TAF TAF LECO
Valid from the 08 at 09:00 until the 09 at 09:00 UTC


080800Z 0809/0909 VRB05KT 8000 SCT020 TX19/0814Z TN10/0809Z
TEMPO 0809/0903 3000 BR BCFG BKN005
TEMPO 0809/0812 0800 FG BKN002
TEMPO 0809/0812 0350 FG VV001
TEMPO 0903/0909 3000 RA BKN005 BKN010
PROB40
TEMPO 0821/0906 0350 FG VV001



MET'MAP, your aeronautical weather chart ! - Copyright ORBIFLY December 2007 - Disclaimer

ORBIFLY MET'MAP TEAM :

Programming & Development : Alexandra Zaïnal
Concept & original design : Baudouin d'Aumeries
Assistance for programming : Marc-Olivier Méhu
Technical & hardware support : Manuel Goepfert

Contact : metmap@orbifly.com




SOURCES & CREDITS :

   NOAA